Ormi — HPDQ — position and weather

sailwx.info

Track history (hours):
 
Tides and Currents Weather Stations Pressure Air Temp Water Temp Dewpoint Dewpoint Depression Visibility Wind Speed Wind Dir Waves Ship Positions

Ormi

Last reported at 2017-Nov-23 16:56 UTC. Time now 2017-Dec-14 00:44 UTC.
Position N 35°56' E 000°04'.
Warning: this ship's position is 20 days out of date.

Length 151 m; draft 7.9 m.

Type: Cargo ship. MMSI: 351931000.

Date/timePositionNaut miles runAvg speedWind from/ knotsBaromVisibWave heightAir tempDewpointWater temp
2017-Nov-23 16:56N 35°56' E 000°04'0 0.0
2017-Nov-23 16:30N 35°56' E 000°04'0 0.0
2017-Nov-23 15:58N 35°56' E 000°04'0 0.0
2017-Nov-23 15:16N 35°56' E 000°04'3 0.2
2017-Nov-22 20:28N 35°59' E 000°03'  
2017-Nov-15 02:12N 36°22' E 013°53'2 8.3
2017-Nov-15 01:59N 36°20' E 013°54'4 8.3
2017-Nov-15 01:30N 36°16' E 013°56'4 8.2
2017-Nov-15 01:00N 36°13' E 013°58'4 8.2
2017-Nov-15 00:30N 36°09' E 014°01'4 7.9
2017-Nov-15 00:00N 36°06' E 014°04'4 8.2
2017-Nov-14 23:31N 36°03' E 014°07'4 8.4
2017-Nov-14 23:00N 35°59' E 014°10'4 8.1
2017-Nov-14 22:30N 35°56' E 014°12'4 8.4
2017-Nov-14 22:00N 35°53' E 014°16'4 8.3
2017-Nov-14 21:30N 35°49' E 014°19'4 8.0
2017-Nov-14 21:00N 35°46' E 014°22'4 7.4
2017-Nov-14 20:30N 35°45' E 014°26'8 8.1
2017-Nov-14 19:31N 35°46' E 014°36'0 8.2
2017-Nov-14 19:29N 35°46' E 014°36'3 4.9
2017-Nov-14 18:47N 35°50' E 014°36'0 0.1
2017-Nov-14 18:29N 35°50' E 014°36'0 0.1
2017-Nov-14 17:59N 35°50' E 014°36'0 0.1
2017-Nov-14 17:29N 35°50' E 014°36'0 0.0
2017-Nov-14 16:59N 35°50' E 014°36'0 0.0
2017-Nov-14 16:23N 35°50' E 014°36'0 0.0
2017-Nov-14 12:56N 35°50' E 014°36'0 0.3
2017-Nov-14 12:30N 35°50' E 014°36'2 5.0
2017-Nov-14 12:00N 35°50' E 014°39'3 5.6
2017-Nov-14 11:30N 35°51' E 014°42'3 5.8
2017-Nov-14 10:56N 35°53' E 014°45'  
Track history (hours):
 
Tides and Currents Weather Stations Pressure Air Temp Water Temp Dewpoint Dewpoint Depression Visibility Wind Speed Wind Dir Waves Ship Positions

Ormi

Last reported at 2017-Nov-23 16:56 UTC. Time now 2017-Dec-14 00:44 UTC.
Position N 35°56' E 000°04'.
Warning: this ship's position is 20 days out of date.

Length 151 m; draft 7.9 m.

Type: Cargo ship. MMSI: 351931000.

Date/timePositionNaut miles runAvg speedWind from/ knotsBaromVisibWave heightAir tempDewpointWater temp
2017-Nov-23 16:56N 35°56' E 000°04'0 0.0
2017-Nov-23 16:30N 35°56' E 000°04'0 0.0
2017-Nov-23 15:58N 35°56' E 000°04'0 0.0
2017-Nov-23 15:16N 35°56' E 000°04'3 0.2
2017-Nov-22 20:28N 35°59' E 000°03'  
2017-Nov-15 02:12N 36°22' E 013°53'2 8.3
2017-Nov-15 01:59N 36°20' E 013°54'4 8.3
2017-Nov-15 01:30N 36°16' E 013°56'4 8.2
2017-Nov-15 01:00N 36°13' E 013°58'4 8.2
2017-Nov-15 00:30N 36°09' E 014°01'4 7.9
2017-Nov-15 00:00N 36°06' E 014°04'4 8.2
2017-Nov-14 23:31N 36°03' E 014°07'4 8.4
2017-Nov-14 23:00N 35°59' E 014°10'4 8.1
2017-Nov-14 22:30N 35°56' E 014°12'4 8.4
2017-Nov-14 22:00N 35°53' E 014°16'4 8.3
2017-Nov-14 21:30N 35°49' E 014°19'4 8.0
2017-Nov-14 21:00N 35°46' E 014°22'4 7.4
2017-Nov-14 20:30N 35°45' E 014°26'8 8.1
2017-Nov-14 19:31N 35°46' E 014°36'0 8.2
2017-Nov-14 19:29N 35°46' E 014°36'3 4.9
2017-Nov-14 18:47N 35°50' E 014°36'0 0.1
2017-Nov-14 18:29N 35°50' E 014°36'0 0.1
2017-Nov-14 17:59N 35°50' E 014°36'0 0.1
2017-Nov-14 17:29N 35°50' E 014°36'0 0.0
2017-Nov-14 16:59N 35°50' E 014°36'0 0.0
2017-Nov-14 16:23N 35°50' E 014°36'0 0.0
2017-Nov-14 12:56N 35°50' E 014°36'0 0.3
2017-Nov-14 12:30N 35°50' E 014°36'2 5.0
2017-Nov-14 12:00N 35°50' E 014°39'3 5.6
2017-Nov-14 11:30N 35°51' E 014°42'3 5.8
2017-Nov-14 10:56N 35°53' E 014°45'  

Dump ship's entire track history